No data was retrieved for https://query.yahooapis.com/v1/public/yql?q=select+%2A+from+weather.forecast+where+woeid%3D860853&format=xml&u=c

Forest fire From: 06-04-2020 07:00 Until: 10-04-2020 23:00 warning for: Forest fire Level: Yellow info button


Visit our other weather sites:

Template documentation
and downloads

And another site



Nearby METAR Reports

   
EBAW - Antwerp
Updated: 06-04-2020 12:20
Clear  
Clear  
   Wind: SSW 4.1 m/s
Wind: SSW 4.1 m/s
Temperature: 19°C
Dew Point: 2°C
Humidity: 32%
Barometer: 1018 hPa
Visibility: More than 10 km
Cloud details: Clear
EBAW 061020Z 21008KT 160V260 CAVOK 19/02 Q1018 NOSIG
EBLG - Liège
Updated: 06-04-2020 12:20
Clear  
Clear  
   Wind: South 6.2 m/s
Wind: South 6.2 m/s
Temperature: 19°C
Dew Point: 2°C
Humidity: 32%
Barometer: 1019 hPa
Visibility: More than 10 km
Cloud details: Clear
EBLG 061020Z 19012KT CAVOK 19/02 Q1019 NOSIG
EBCV - Mons/Bergen
Updated: 06-04-2020 12:25
Mostly Cloudy  
Mostly Cloudy  
   Wind: SSW 7.2 m/s
Wind: SSW 7.2 m/s
Temperature: 17°C
Dew Point: 3°C
Humidity: 39%
Barometer: 1019 hPa
Clouds: Mostly Cloudy
Visibility: More than 10 km
Cloud details: Mostly Cloudy 9200 ft
EBCV 061025Z AUTO 20014KT 9999 BKN092/// 17/03 Q1019 BLU
EHBK - Maastricht
Updated: 06-04-2020 12:25
Clear  
Clear  
   Wind: SSW 6.7 m/s
Wind: SSW 6.7 m/s
Temperature: 19°C
Dew Point: 4°C
Humidity: 37%
Barometer: 1019 hPa
Clouds: Clear
Visibility: More than 10 km
Cloud details: Clear
EHBK 061025Z AUTO 20013KT 170V240 9999 NCD 19/04 Q1019 NOSIG
ELLX - Luxemburg
Updated: 06-04-2020 12:20
Clear  
Clear  
   Wind: SSW 4.6 m/s
Wind: SSW 4.6 m/s
Temperature: 16°C
Dew Point: 2°C
Humidity: 39%
Barometer: 1022 hPa
Visibility: More than 10 km
Cloud details: Clear
ELLX 061020Z 20009KT 160V260 CAVOK 16/02 Q1022 NOSIG
EBOS - Oostende
Updated: 06-04-2020 12:20
Clear  
Clear  
   Wind: SSW 7.7 m/s
Wind: SSW 7.7 m/s
Temperature: 16°C
Dew Point: 5°C
Humidity: 48%
Barometer: 1018 hPa
Visibility: More than 10 km
Cloud details: Clear
EBOS 061020Z 21015KT CAVOK 16/05 Q1018 NOSIG

Script developed by  Saratoga-weather.org Adapted for the template by  Weerstation Leuven

You find our weather info also at:

Weather Underground

Equipment we use:

Weather-station
Davis Vantage Vue

Weather-program
WeatherCat

Provider
one.com

Davis Vantage Vue

WeatherCat

one.com